Time;durP1;ratioP1;P1;durP2;ratioP2;P2;SDS_P1;SDS_P2;PMS_P1;PMS_P2;Temp;Humidity;BMP_temperature;BMP_pressure;BME280_temperature;BME280_humidity;BME280_pressure;Samples;Min_cycle;Max_cycle;Signal;HPM_P1;HPM_P2
2023/04/17 00:01:17;;;;;;;19.93;15.30;;;7.80;99.90;;;;;;493963;241;27903;-76
2023/04/17 00:03:19;;;;;;;17.77;12.27;;;7.70;99.90;;;;;;494004;241;28450;-76
2023/04/17 00:05:21;;;;;;;14.67;11.77;;;7.70;99.90;;;;;;493931;241;28473;-76
2023/04/17 00:07:22;;;;;;;21.10;13.60;;;7.70;99.90;;;;;;493823;241;28039;-76
2023/04/17 00:09:22;;;;;;;19.07;13.10;;;7.70;99.90;;;;;;493828;241;28097;-76
2023/04/17 00:11:24;;;;;;;16.33;13.03;;;7.70;99.90;;;;;;493888;241;27903;-76
2023/04/17 00:13:25;;;;;;;21.47;14.60;;;7.70;99.90;;;;;;493979;241;27460;-75
2023/04/17 00:15:26;;;;;;;21.60;13.57;;;7.70;99.90;;;;;;493892;241;27752;-76
2023/04/17 00:17:28;;;;;;;22.07;14.30;;;7.00;99.90;;;;;;493966;241;27677;-76
2023/04/17 00:19:29;;;;;;;21.13;15.23;;;7.70;99.90;;;;;;493933;241;27638;-75
2023/04/17 00:21:31;;;;;;;24.37;15.30;;;7.70;99.90;;;;;;493943;241;29374;-76
2023/04/17 00:23:31;;;;;;;20.00;13.53;;;7.70;99.90;;;;;;493950;241;28249;-76
2023/04/17 00:25:33;;;;;;;22.20;14.80;;;7.70;99.90;;;;;;493874;241;27972;-76
2023/04/17 00:27:34;;;;;;;17.20;13.60;;;7.70;99.90;;;;;;493962;237;27903;-76
2023/04/17 00:29:36;;;;;;;18.17;13.87;;;7.70;99.90;;;;;;493963;241;27865;-76
2023/04/17 00:31:36;;;;;;;22.90;15.60;;;7.70;99.90;;;;;;493944;241;27890;-76
2023/04/17 00:33:38;;;;;;;19.83;13.30;;;7.80;99.90;;;;;;494024;241;27587;-76
2023/04/17 00:35:39;;;;;;;22.23;15.07;;;7.70;99.90;;;;;;493749;241;28018;-76
2023/04/17 00:37:40;;;;;;;21.27;15.53;;;7.80;99.90;;;;;;493994;241;27943;-75
2023/04/17 00:39:41;;;;;;;19.17;13.20;;;7.70;99.90;;;;;;493938;241;28552;-76
2023/04/17 00:41:43;;;;;;;17.77;13.47;;;7.70;99.90;;;;;;494001;241;28278;-76
2023/04/17 00:43:44;;;;;;;17.40;13.33;;;7.70;99.90;;;;;;494014;241;27819;-76
2023/04/17 00:45:45;;;;;;;17.83;12.87;;;7.90;99.90;;;;;;493964;241;27556;-76
2023/04/17 00:47:46;;;;;;;18.20;13.20;;;7.70;99.90;;;;;;493984;241;28022;-76
2023/04/17 00:49:48;;;;;;;20.60;13.87;;;7.80;99.90;;;;;;494009;241;28002;-76
2023/04/17 00:51:49;;;;;;;19.27;12.60;;;7.70;99.90;;;;;;494017;241;28248;-76
2023/04/17 00:53:50;;;;;;;17.97;12.83;;;7.70;99.90;;;;;;494033;241;27817;-76
2023/04/17 00:55:51;;;;;;;18.03;14.13;;;8.40;99.90;;;;;;493950;241;27980;-76
2023/04/17 00:57:53;;;;;;;17.77;13.90;;;7.70;99.90;;;;;;493977;241;28047;-76
2023/04/17 00:59:54;;;;;;;29.23;15.97;;;7.70;99.90;;;;;;493939;241;28072;-76
2023/04/17 01:01:55;;;;;;;21.53;14.90;;;7.70;99.90;;;;;;494011;237;28084;-76
2023/04/17 01:03:58;;;;;;;19.53;14.77;;;7.70;99.90;;;;;;493976;241;28058;-76
2023/04/17 01:05:58;;;;;;;26.43;15.60;;;7.70;99.90;;;;;;493788;241;28334;-76
2023/04/17 01:07:59;;;;;;;21.47;15.60;;;7.70;99.90;;;;;;493964;241;28371;-76
2023/04/17 01:10:00;;;;;;;22.63;15.40;;;7.70;99.90;;;;;;493973;241;28533;-76
2023/04/17 01:12:02;;;;;;;24.50;16.60;;;7.60;99.90;;;;;;493826;241;27604;-76
2023/04/17 01:14:03;;;;;;;21.10;15.20;;;7.20;99.90;;;;;;493955;241;28000;-76
2023/04/17 01:16:04;;;;;;;25.63;17.27;;;7.70;99.90;;;;;;493911;241;27759;-76
2023/04/17 01:18:05;;;;;;;20.20;15.03;;;7.80;99.90;;;;;;493969;241;28014;-76
2023/04/17 01:20:09;;;;;;;23.70;15.80;;;7.70;99.90;;;;;;493952;241;27512;-76
2023/04/17 01:22:08;;;;;;;23.87;16.47;;;7.70;99.90;;;;;;493806;241;27930;-76
2023/04/17 01:24:09;;;;;;;22.83;15.93;;;7.70;99.90;;;;;;493961;241;28667;-76
2023/04/17 01:26:10;;;;;;;19.13;14.27;;;8.20;99.90;;;;;;493880;241;28458;-76
2023/04/17 01:28:11;;;;;;;22.40;15.37;;;7.70;99.90;;;;;;493928;241;29259;-76
2023/04/17 01:30:13;;;;;;;26.40;16.20;;;7.70;99.90;;;;;;493999;241;27905;-76
2023/04/17 01:32:14;;;;;;;21.30;14.60;;;7.70;99.90;;;;;;493996;241;27855;-76
2023/04/17 01:34:15;;;;;;;21.70;14.00;;;7.70;99.90;;;;;;493924;241;28052;-76
2023/04/17 01:36:17;;;;;;;20.00;14.97;;;7.70;99.90;;;;;;493911;241;28103;-76
2023/04/17 01:38:18;;;;;;;22.77;16.87;;;7.70;99.90;;;;;;494011;241;27596;-76
2023/04/17 01:40:19;;;;;;;24.23;16.77;;;7.70;99.90;;;;;;493971;241;27995;-75
2023/04/17 01:42:20;;;;;;;25.67;16.07;;;7.60;99.90;;;;;;493961;241;28234;-76
2023/04/17 01:44:22;;;;;;;22.87;15.83;;;7.80;99.90;;;;;;493900;241;27910;-76
2023/04/17 01:46:23;;;;;;;20.00;14.47;;;7.60;99.90;;;;;;493948;241;28432;-76
2023/04/17 01:48:24;;;;;;;23.80;16.00;;;7.70;99.90;;;;;;493971;241;27903;-76
2023/04/17 01:50:26;;;;;;;22.80;15.83;;;7.70;99.90;;;;;;493984;241;27935;-76
2023/04/17 01:52:27;;;;;;;18.47;13.37;;;7.70;99.90;;;;;;493943;241;27971;-76
2023/04/17 01:54:28;;;;;;;24.13;16.30;;;7.70;99.90;;;;;;493871;241;27568;-76
2023/04/17 01:56:29;;;;;;;23.77;16.47;;;7.70;99.90;;;;;;493951;241;27870;-76
2023/04/17 01:58:30;;;;;;;27.03;17.63;;;7.70;99.90;;;;;;493981;241;27868;-75
2023/04/17 02:00:32;;;;;;;21.30;15.17;;;7.60;99.90;;;;;;493969;241;28267;-76
2023/04/17 02:02:33;;;;;;;28.83;17.23;;;8.60;99.90;;;;;;493951;241;28394;-75
2023/04/17 02:04:34;;;;;;;26.47;16.27;;;7.60;99.90;;;;;;493900;241;28517;-76
2023/04/17 02:06:35;;;;;;;24.07;16.73;;;7.60;99.90;;;;;;493943;241;28179;-76
2023/04/17 02:08:37;;;;;;;23.40;16.33;;;7.60;99.90;;;;;;494027;241;27978;-75
2023/04/17 02:10:38;;;;;;;25.50;17.20;;;7.70;99.90;;;;;;493946;241;27700;-76
2023/04/17 02:12:39;;;;;;;26.43;17.90;;;7.60;99.90;;;;;;493984;241;28132;-76
2023/04/17 02:14:40;;;;;;;27.53;17.90;;;7.60;99.90;;;;;;493935;241;28087;-76
2023/04/17 02:16:44;;;;;;;33.27;18.43;;;7.60;99.90;;;;;;493953;241;27971;-76
2023/04/17 02:18:43;;;;;;;27.83;18.20;;;7.70;99.90;;;;;;493827;241;28945;-76
2023/04/17 02:20:44;;;;;;;24.50;17.60;;;7.60;99.90;;;;;;494025;241;28413;-76
2023/04/17 02:22:45;;;;;;;29.97;18.53;;;7.50;99.90;;;;;;494042;241;28349;-76
2023/04/17 02:24:47;;;;;;;28.50;19.13;;;7.60;99.90;;;;;;493942;241;28027;-76
2023/04/17 02:26:48;;;;;;;30.27;18.70;;;7.70;99.90;;;;;;493953;241;28054;-76
2023/04/17 02:28:49;;;;;;;26.47;17.23;;;7.60;99.90;;;;;;493924;241;27928;-76
2023/04/17 02:30:50;;;;;;;33.43;20.03;;;7.60;99.90;;;;;;493957;241;27569;-76
2023/04/17 02:32:52;;;;;;;28.00;18.33;;;7.60;99.90;;;;;;493868;241;27968;-76
2023/04/17 02:34:53;;;;;;;27.23;17.77;;;7.60;99.90;;;;;;493959;237;27551;-76
2023/04/17 02:36:54;;;;;;;33.00;19.47;;;7.60;99.90;;;;;;493960;241;29312;-76
2023/04/17 02:38:55;;;;;;;26.87;17.63;;;7.60;99.90;;;;;;493957;241;28379;-76
2023/04/17 02:40:57;;;;;;;32.13;18.97;;;7.50;99.90;;;;;;494009;241;27969;-76
2023/04/17 02:42:58;;;;;;;30.33;20.40;;;7.50;99.90;;;;;;493932;241;27863;-76
2023/04/17 02:44:59;;;;;;;30.77;18.90;;;7.60;99.90;;;;;;493923;241;27989;-76
2023/04/17 02:47:00;;;;;;;30.70;18.80;;;7.50;99.90;;;;;;493944;241;27934;-76
2023/04/17 02:49:02;;;;;;;30.10;18.73;;;7.50;99.90;;;;;;493939;241;27804;-76
2023/04/17 02:51:03;;;;;;;27.07;18.83;;;7.50;99.90;;;;;;493971;241;28055;-75
2023/04/17 02:53:04;;;;;;;29.43;19.60;;;7.50;99.90;;;;;;493998;241;28056;-76
2023/04/17 02:55:05;;;;;;;31.30;19.07;;;7.60;99.90;;;;;;493916;241;28385;-76
2023/04/17 02:57:07;;;;;;;28.97;18.00;;;7.50;99.90;;;;;;493948;241;28456;-76
2023/04/17 02:59:08;;;;;;;31.83;20.23;;;7.50;99.90;;;;;;493917;241;27810;-75
2023/04/17 03:01:09;;;;;;;26.60;17.93;;;7.50;99.90;;;;;;493933;241;28080;-76
2023/04/17 03:03:10;;;;;;;29.53;19.57;;;7.60;99.90;;;;;;493968;241;27993;-76
2023/04/17 03:05:13;;;;;;;26.23;18.10;;;7.50;99.90;;;;;;493895;241;28026;-76
2023/04/17 03:07:13;;;;;;;27.77;18.67;;;7.50;99.90;;;;;;493833;241;27649;-76
2023/04/17 03:09:14;;;;;;;30.80;20.23;;;7.50;99.90;;;;;;493921;241;27705;-75
2023/04/17 03:11:15;;;;;;;32.70;21.33;;;7.50;99.90;;;;;;493948;241;28067;-76
2023/04/17 03:13:17;;;;;;;29.03;18.90;;;7.50;99.90;;;;;;493985;241;28331;-75
2023/04/17 03:15:18;;;;;;;33.80;21.10;;;7.50;99.90;;;;;;493891;241;28455;-76
2023/04/17 03:17:19;;;;;;;32.07;20.63;;;7.50;99.90;;;;;;493903;241;27959;-72
2023/04/17 03:19:20;;;;;;;36.30;21.83;;;7.50;99.90;;;;;;493921;241;27778;-73
2023/04/17 03:21:22;;;;;;;39.40;23.50;;;7.40;99.90;;;;;;493966;241;27947;-76
2023/04/17 03:23:23;;;;;;;36.27;22.00;;;7.40;99.90;;;;;;493961;241;28048;-76
2023/04/17 03:25:24;;;;;;;39.17;23.27;;;7.40;99.90;;;;;;493770;241;27931;-76
2023/04/17 03:27:26;;;;;;;36.63;22.37;;;7.50;99.90;;;;;;493938;241;28045;-76
2023/04/17 03:29:27;;;;;;;33.13;21.83;;;7.40;99.90;;;;;;493948;241;28058;-76
2023/04/17 03:31:28;;;;;;;41.67;23.47;;;7.40;99.90;;;;;;493982;237;28370;-75
2023/04/17 03:33:29;;;;;;;38.37;24.20;;;7.40;99.90;;;;;;493957;241;28258;-75
2023/04/17 03:35:31;;;;;;;39.50;24.73;;;7.40;99.90;;;;;;493880;241;27821;-76
2023/04/17 03:37:32;;;;;;;40.43;24.17;;;7.40;99.90;;;;;;493969;241;27868;-75
2023/04/17 03:39:33;;;;;;;38.57;23.90;;;7.30;99.90;;;;;;493999;241;27689;-76
2023/04/17 03:41:35;;;;;;;45.10;27.47;;;7.40;99.90;;;;;;493971;241;27937;-76
2023/04/17 03:43:36;;;;;;;41.40;25.77;;;7.40;99.90;;;;;;493988;241;27741;-76
2023/04/17 03:45:37;;;;;;;42.03;25.70;;;7.30;99.90;;;;;;493894;241;28181;-75
2023/04/17 03:47:38;;;;;;;48.03;29.10;;;7.40;99.90;;;;;;493951;241;27610;-75
2023/04/17 03:49:39;;;;;;;49.33;28.17;;;7.30;99.90;;;;;;493949;241;28639;-75
2023/04/17 03:51:41;;;;;;;54.23;28.27;;;7.30;99.90;;;;;;493980;241;28307;-75
2023/04/17 03:53:42;;;;;;;48.00;26.93;;;7.30;99.90;;;;;;493931;241;27986;-76
2023/04/17 03:55:43;;;;;;;41.57;25.43;;;7.30;99.90;;;;;;493877;241;28022;-75
2023/04/17 03:57:44;;;;;;;53.13;29.00;;;7.30;99.90;;;;;;493936;241;27856;-75
2023/04/17 03:59:46;;;;;;;53.57;29.83;;;7.30;99.90;;;;;;493995;241;28164;-75
2023/04/17 04:01:47;;;;;;;51.70;27.20;;;7.30;99.90;;;;;;493993;237;28002;-75
2023/04/17 04:03:48;;;;;;;53.23;30.07;;;7.40;99.90;;;;;;493961;241;28032;-75
2023/04/17 04:05:49;;;;;;;53.33;28.43;;;7.40;99.90;;;;;;493903;241;28080;-76
2023/04/17 04:07:51;;;;;;;55.50;30.00;;;7.40;99.90;;;;;;493941;241;28480;-75
2023/04/17 04:09:52;;;;;;;54.77;29.87;;;7.40;99.90;;;;;;493895;241;28506;-76
2023/04/17 04:11:53;;;;;;;50.27;29.17;;;7.40;99.90;;;;;;493928;237;27837;-75
2023/04/17 04:13:54;;;;;;;59.30;32.67;;;7.50;99.90;;;;;;493987;241;27773;-73
2023/04/17 04:15:56;;;;;;;57.80;32.60;;;7.40;99.90;;;;;;493918;241;28026;-76
2023/04/17 04:17:57;;;;;;;66.03;33.80;;;7.40;99.90;;;;;;493927;241;27830;-76
2023/04/17 04:19:59;;;;;;;61.60;30.50;;;7.40;99.90;;;;;;493994;241;28337;-75
2023/04/17 04:22:00;;;;;;;71.10;33.70;;;7.40;99.90;;;;;;493981;241;28218;-76
2023/04/17 04:24:01;;;;;;;71.27;34.53;;;7.40;99.90;;;;;;493820;241;28088;-76
2023/04/17 04:26:02;;;;;;;61.93;33.43;;;7.40;99.90;;;;;;493918;241;28496;-76
2023/04/17 04:28:04;;;;;;;61.60;33.30;;;7.40;99.90;;;;;;493935;241;28483;-76
2023/04/17 04:30:04;;;;;;;71.73;35.00;;;7.40;99.90;;;;;;493977;241;28247;-75
2023/04/17 04:32:08;;;;;;;52.97;30.07;;;7.40;99.90;;;;;;493994;241;27925;-75
2023/04/17 04:34:08;;;;;;;60.60;33.47;;;7.40;99.90;;;;;;493809;241;27975;-76
2023/04/17 04:36:08;;;;;;;58.43;34.07;;;7.50;99.90;;;;;;493843;241;27903;-76
2023/04/17 04:38:12;;;;;;;52.83;31.47;;;7.40;99.90;;;;;;493949;241;27906;-75
2023/04/17 04:40:11;;;;;;;54.87;30.40;;;7.50;99.90;;;;;;493769;241;27917;-73
2023/04/17 04:42:12;;;;;;;48.63;29.00;;;7.40;99.90;;;;;;493998;241;28405;-73
2023/04/17 04:44:13;;;;;;;52.30;30.63;;;7.40;99.90;;;;;;493957;237;28490;-73
2023/04/17 04:46:14;;;;;;;53.03;30.40;;;7.40;99.90;;;;;;493914;241;28275;-73
2023/04/17 04:48:16;;;;;;;56.60;31.70;;;7.40;99.90;;;;;;493849;241;27858;-76
2023/04/17 04:50:17;;;;;;;53.20;31.53;;;7.40;99.90;;;;;;493982;241;28012;-76
2023/04/17 04:52:18;;;;;;;62.00;32.87;;;7.40;99.90;;;;;;493994;241;27799;-75
2023/04/17 04:54:20;;;;;;;56.10;30.57;;;7.40;99.90;;;;;;493940;241;27990;-76
2023/04/17 04:56:21;;;;;;;58.57;32.47;;;7.40;99.90;;;;;;493994;237;27920;-75
2023/04/17 04:58:22;;;;;;;65.17;32.20;;;7.40;99.90;;;;;;493993;241;27992;-75
2023/04/17 05:00:23;;;;;;;64.43;32.23;;;7.40;99.90;;;;;;494017;241;28645;-77
2023/04/17 05:02:25;;;;;;;54.57;32.60;;;7.50;99.90;;;;;;494024;241;28007;-76
2023/04/17 05:04:26;;;;;;;60.60;34.23;;;7.40;99.90;;;;;;493931;241;28558;-76
2023/04/17 05:06:27;;;;;;;62.80;33.00;;;7.40;99.90;;;;;;493954;241;27449;-75
2023/04/17 05:08:28;;;;;;;58.90;32.67;;;7.40;99.90;;;;;;493952;241;28179;-76
2023/04/17 05:10:30;;;;;;;64.47;32.63;;;7.40;99.90;;;;;;493998;241;27860;-76
2023/04/17 05:12:31;;;;;;;56.43;32.53;;;7.40;99.90;;;;;;493995;241;27582;-75
2023/04/17 05:14:32;;;;;;;64.77;33.20;;;7.40;99.90;;;;;;493909;241;28083;-75
2023/04/17 05:16:33;;;;;;;62.80;34.07;;;7.40;99.90;;;;;;493974;241;27891;-76
2023/04/17 05:18:35;;;;;;;65.90;34.87;;;7.50;99.90;;;;;;493945;241;28722;-76
2023/04/17 05:20:36;;;;;;;63.23;34.63;;;7.40;99.90;;;;;;494017;241;28461;-76
2023/04/17 05:22:37;;;;;;;62.83;33.93;;;7.40;99.90;;;;;;494025;241;28195;-76
2023/04/17 05:24:38;;;;;;;57.07;32.53;;;7.50;99.90;;;;;;493915;241;28095;-76
2023/04/17 05:26:40;;;;;;;64.07;33.27;;;7.50;99.90;;;;;;493947;241;28107;-76
2023/04/17 05:28:43;;;;;;;60.43;33.90;;;7.50;99.90;;;;;;493951;241;28035;-76
2023/04/17 05:30:42;;;;;;;61.67;34.23;;;7.50;99.90;;;;;;493787;241;28340;-76
2023/04/17 05:32:43;;;;;;;54.60;32.07;;;7.60;99.90;;;;;;493968;241;27804;-76
2023/04/17 05:34:45;;;;;;;63.50;34.20;;;7.50;99.90;;;;;;493858;241;27986;-76
2023/04/17 05:36:46;;;;;;;60.33;32.57;;;7.50;99.90;;;;;;493954;237;28422;-75
2023/04/17 05:38:47;;;;;;;59.57;31.33;;;7.50;99.90;;;;;;493953;241;28330;-75
2023/04/17 05:40:48;;;;;;;60.40;32.63;;;7.60;99.90;;;;;;493979;239;28450;-76
2023/04/17 05:42:50;;;;;;;58.63;33.20;;;7.50;99.90;;;;;;493970;241;27995;-76
2023/04/17 05:44:51;;;;;;;60.67;33.77;;;7.50;99.90;;;;;;493894;237;27631;-76
2023/04/17 05:46:55;;;;;;;59.53;31.73;;;7.60;99.90;;;;;;493973;241;27938;-76
2023/04/17 05:48:53;;;;;;;58.43;31.60;;;7.60;99.90;;;;;;493727;241;27628;-76
2023/04/17 05:50:55;;;;;;;60.30;33.77;;;7.60;99.90;;;;;;494008;241;27965;-76
2023/04/17 05:52:56;;;;;;;56.73;32.33;;;7.60;99.90;;;;;;493975;237;28274;-76
2023/04/17 05:54:57;;;;;;;58.73;30.67;;;7.60;99.90;;;;;;493850;241;28436;-76
2023/04/17 05:56:58;;;;;;;57.47;31.93;;;7.60;99.90;;;;;;493939;241;27842;-76
2023/04/17 05:59:00;;;;;;;51.93;30.07;;;7.70;99.90;;;;;;493968;241;28192;-76
2023/04/17 06:01:01;;;;;;;48.10;30.50;;;7.70;99.90;;;;;;494005;241;28061;-76
2023/04/17 06:03:02;;;;;;;46.43;29.63;;;7.70;99.90;;;;;;493992;241;27705;-76
2023/04/17 06:05:05;;;;;;;50.80;29.43;;;7.70;99.90;;;;;;493938;241;27517;-76
2023/04/17 06:07:05;;;;;;;47.10;28.90;;;7.80;99.90;;;;;;493817;241;27955;-76
2023/04/17 06:09:08;;;;;;;50.70;30.77;;;7.90;99.90;;;;;;493975;241;28267;-76
2023/04/17 06:11:07;;;;;;;46.57;29.03;;;7.90;99.90;;;;;;493887;241;28311;-76
2023/04/17 06:13:08;;;;;;;46.57;28.53;;;7.90;99.90;;;;;;493961;241;28180;-76
2023/04/17 06:15:10;;;;;;;44.87;28.40;;;8.00;99.90;;;;;;493925;241;27963;-76
2023/04/17 06:17:11;;;;;;;39.20;24.87;;;8.10;99.90;;;;;;493963;241;27776;-76
2023/04/17 06:19:12;;;;;;;45.40;28.80;;;8.20;99.90;;;;;;493964;241;27661;-76
2023/04/17 06:21:13;;;;;;;47.87;28.37;;;8.30;99.90;;;;;;493993;241;27963;-76
2023/04/17 06:23:15;;;;;;;47.80;28.63;;;8.10;99.90;;;;;;493945;241;27795;-76
2023/04/17 06:25:17;;;;;;;42.70;26.60;;;8.10;99.90;;;;;;493908;237;27973;-76
2023/04/17 06:27:17;;;;;;;39.37;25.67;;;8.30;99.90;;;;;;493982;241;28595;-76
2023/04/17 06:29:18;;;;;;;43.27;27.10;;;8.20;99.90;;;;;;493973;241;28432;-76
2023/04/17 06:31:20;;;;;;;42.40;25.63;;;8.20;99.90;;;;;;493980;241;28345;-77
2023/04/17 06:33:21;;;;;;;42.80;25.80;;;8.10;99.90;;;;;;493981;237;28125;-76
2023/04/17 06:35:22;;;;;;;40.70;27.07;;;8.10;99.90;;;;;;493876;241;28008;-76
2023/04/17 06:37:23;;;;;;;36.77;23.50;;;8.10;99.90;;;;;;493986;241;27845;-77
2023/04/17 06:39:25;;;;;;;39.83;26.13;;;8.30;99.90;;;;;;493970;237;27706;-76
2023/04/17 06:41:26;;;;;;;43.60;26.87;;;8.20;99.90;;;;;;493998;241;27825;-76
2023/04/17 06:43:27;;;;;;;40.00;25.53;;;8.20;99.90;;;;;;493984;241;27935;-76
2023/04/17 06:45:29;;;;;;;39.83;26.73;;;8.30;99.90;;;;;;493865;238;28184;-76
2023/04/17 06:47:30;;;;;;;32.47;23.67;;;8.40;99.90;;;;;;494036;241;28118;-76
2023/04/17 06:49:31;;;;;;;44.60;26.40;;;8.50;99.90;;;;;;494007;241;28292;-76
2023/04/17 06:51:32;;;;;;;37.93;23.77;;;8.30;99.90;;;;;;493965;241;27826;-76
2023/04/17 06:53:34;;;;;;;41.20;23.93;;;8.40;99.90;;;;;;493962;241;27635;-76
2023/04/17 06:55:35;;;;;;;38.43;25.10;;;8.30;99.90;;;;;;493869;237;27950;-76
2023/04/17 06:57:37;;;;;;;39.37;24.37;;;8.30;99.90;;;;;;493997;241;28186;-76
2023/04/17 06:59:37;;;;;;;36.80;24.63;;;8.30;99.90;;;;;;493914;241;27851;-76
2023/04/17 07:01:39;;;;;;;34.87;22.57;;;8.30;99.90;;;;;;493966;241;27956;-76
2023/04/17 07:03:40;;;;;;;36.40;24.43;;;8.30;99.90;;;;;;493923;241;28534;-76
2023/04/17 07:05:41;;;;;;;35.20;24.27;;;8.30;99.90;;;;;;493892;241;28349;-76
2023/04/17 07:07:42;;;;;;;41.30;24.87;;;8.40;99.90;;;;;;493967;241;28333;-76
2023/04/17 07:09:44;;;;;;;39.03;23.70;;;8.40;99.90;;;;;;493962;241;27815;-76
2023/04/17 07:11:45;;;;;;;38.87;24.77;;;8.40;99.90;;;;;;493943;241;27890;-76
2023/04/17 07:13:46;;;;;;;40.37;24.17;;;8.40;99.90;;;;;;493954;241;27805;-76
2023/04/17 07:15:47;;;;;;;39.10;24.20;;;8.40;99.90;;;;;;493909;241;27736;-76
2023/04/17 07:17:49;;;;;;;35.47;24.30;;;8.60;99.90;;;;;;493972;241;27979;-76
2023/04/17 07:19:50;;;;;;;37.33;24.13;;;8.50;99.90;;;;;;493992;241;28014;-76
2023/04/17 07:21:52;;;;;;;26.50;19.33;;;8.50;99.90;;;;;;493953;241;28236;-76
2023/04/17 07:23:52;;;;;;;29.30;21.10;;;8.40;99.90;;;;;;493938;241;28427;-75
2023/04/17 07:25:54;;;;;;;34.63;21.87;;;8.60;99.90;;;;;;493885;241;28577;-76
2023/04/17 07:27:55;;;;;;;30.80;21.50;;;8.50;99.90;;;;;;493992;241;27888;-76
2023/04/17 07:29:56;;;;;;;32.30;20.93;;;8.40;99.90;;;;;;493951;241;27708;-76
2023/04/17 07:31:57;;;;;;;30.87;20.97;;;8.50;99.90;;;;;;493975;241;27959;-77
2023/04/17 07:33:59;;;;;;;30.57;20.50;;;8.40;99.90;;;;;;493938;241;27954;-76
2023/04/17 07:36:00;;;;;;;35.07;23.47;;;8.50;99.90;;;;;;493894;241;27635;-75
2023/04/17 07:38:03;;;;;;;32.90;21.47;;;8.40;99.90;;;;;;493992;237;27959;-76
2023/04/17 07:40:04;;;;;;;35.50;24.10;;;8.40;99.90;;;;;;493804;241;28479;-76
2023/04/17 07:42:06;;;;;;;34.70;22.70;;;8.50;99.90;;;;;;493781;237;28552;-76
2023/04/17 07:44:05;;;;;;;33.60;21.90;;;8.40;99.90;;;;;;493780;237;27930;-76
2023/04/17 07:46:06;;;;;;;34.23;22.00;;;8.30;99.90;;;;;;493889;241;27822;-76
2023/04/17 07:48:07;;;;;;;31.77;22.10;;;8.40;99.90;;;;;;494016;241;27999;-76
2023/04/17 07:50:09;;;;;;;35.10;23.57;;;8.30;99.90;;;;;;493981;237;28048;-76
2023/04/17 07:52:10;;;;;;;32.73;21.60;;;8.40;99.90;;;;;;493983;241;27910;-76
2023/04/17 07:54:11;;;;;;;39.60;24.17;;;8.60;99.90;;;;;;493947;241;27838;-76
2023/04/17 07:56:12;;;;;;;33.43;23.23;;;8.70;99.90;;;;;;493943;241;27977;-75
2023/04/17 07:58:15;;;;;;;31.47;21.60;;;8.60;99.90;;;;;;493978;241;28478;-76
2023/04/17 08:00:15;;;;;;;32.50;22.03;;;8.80;99.90;;;;;;493985;241;28305;-76
2023/04/17 08:02:16;;;;;;;30.00;20.40;;;8.80;99.90;;;;;;494064;241;27973;-76
2023/04/17 08:04:17;;;;;;;38.00;23.27;;;8.80;99.90;;;;;;493976;241;27954;-76
2023/04/17 08:06:19;;;;;;;28.47;20.10;;;8.80;99.90;;;;;;493942;241;27866;-76
2023/04/17 08:08:22;;;;;;;33.17;21.20;;;9.10;99.90;;;;;;493959;241;27955;-76
2023/04/17 08:10:21;;;;;;;25.30;18.40;;;9.40;99.90;;;;;;493857;238;28070;-76
2023/04/17 08:12:22;;;;;;;24.93;18.20;;;9.60;99.90;;;;;;494029;241;27851;-76
2023/04/17 08:14:24;;;;;;;26.10;18.57;;;9.90;99.90;;;;;;493926;241;27707;-76
2023/04/17 08:16:25;;;;;;;28.10;19.53;;;9.70;99.90;;;;;;493862;237;28445;-76
2023/04/17 08:18:26;;;;;;;28.77;18.60;;;9.70;99.90;;;;;;493976;241;28505;-76
2023/04/17 08:20:28;;;;;;;26.80;18.80;;;9.50;99.90;;;;;;493974;241;27820;-76
2023/04/17 08:22:29;;;;;;;25.73;18.97;;;9.50;99.90;;;;;;493999;241;27950;-76
2023/04/17 08:24:30;;;;;;;26.13;18.80;;;9.50;99.90;;;;;;493920;241;27979;-76
2023/04/17 08:26:31;;;;;;;24.23;17.50;;;9.50;99.90;;;;;;493963;241;27824;-76
2023/04/17 08:28:33;;;;;;;22.60;16.63;;;9.60;99.90;;;;;;493957;241;28315;-76
2023/04/17 08:30:34;;;;;;;27.23;18.03;;;9.40;99.90;;;;;;493980;241;28492;-76
2023/04/17 08:32:35;;;;;;;20.47;16.00;;;9.60;99.90;;;;;;493992;241;28636;-76
2023/04/17 08:34:37;;;;;;;22.33;16.50;;;9.60;99.90;;;;;;493904;241;28056;-76
2023/04/17 08:36:38;;;;;;;21.73;16.67;;;9.50;99.90;;;;;;493935;241;27845;-76
2023/04/17 08:38:40;;;;;;;26.00;18.10;;;9.50;99.90;;;;;;493956;241;28099;-76
2023/04/17 08:40:41;;;;;;;22.57;14.90;;;9.50;99.90;;;;;;493891;241;27970;-76
2023/04/17 08:42:41;;;;;;;21.20;15.20;;;9.50;99.90;;;;;;493952;241;28005;-76
2023/04/17 08:44:43;;;;;;;19.67;15.07;;;9.60;99.90;;;;;;493923;241;28114;-76
2023/04/17 08:46:44;;;;;;;21.50;15.17;;;9.60;99.90;;;;;;493963;241;28277;-76
2023/04/17 08:48:45;;;;;;;22.20;13.67;;;9.60;99.90;;;;;;493986;239;29239;-76
2023/04/17 08:50:47;;;;;;;19.60;15.00;;;9.80;99.90;;;;;;494004;241;28171;-76
2023/04/17 08:52:48;;;;;;;18.00;13.77;;;9.90;99.90;;;;;;493981;241;27992;-76
2023/04/17 08:54:49;;;;;;;17.43;13.27;;;10.00;99.90;;;;;;493891;241;28117;-76
2023/04/17 08:56:50;;;;;;;16.97;12.90;;;10.10;99.90;;;;;;493957;241;28159;-76
2023/04/17 08:58:51;;;;;;;18.13;13.97;;;10.20;99.90;;;;;;493942;241;28061;-76
2023/04/17 09:00:53;;;;;;;16.47;12.00;;;9.90;99.90;;;;;;493985;241;27992;-76
2023/04/17 09:02:54;;;;;;;17.10;12.57;;;9.90;99.90;;;;;;493957;241;27985;-76
2023/04/17 09:04:55;;;;;;;14.77;11.33;;;9.90;99.90;;;;;;493886;237;28262;-76
2023/04/17 09:06:56;;;;;;;14.10;11.07;;;9.70;99.90;;;;;;493924;241;28756;-76
2023/04/17 09:08:58;;;;;;;15.53;10.80;;;9.90;99.90;;;;;;493919;237;28090;-76
2023/04/17 09:10:59;;;;;;;13.87;10.93;;;9.90;99.90;;;;;;493958;241;28051;-76
2023/04/17 09:13:00;;;;;;;12.90;10.50;;;10.00;99.90;;;;;;493984;241;27952;-76
2023/04/17 09:15:01;;;;;;;13.30;10.23;;;10.10;99.90;;;;;;493922;241;27693;-76
2023/04/17 09:17:03;;;;;;;14.77;9.77;;;10.10;99.90;;;;;;493978;241;28204;-75
2023/04/17 09:19:04;;;;;;;10.20;8.47;;;10.10;99.90;;;;;;493962;241;28061;-76
2023/04/17 09:21:05;;;;;;;11.33;8.67;;;9.90;99.90;;;;;;494040;241;28521;-76
2023/04/17 09:23:06;;;;;;;12.50;9.00;;;10.00;99.90;;;;;;493990;241;28463;-76
2023/04/17 09:25:08;;;;;;;13.47;10.40;;;9.90;99.90;;;;;;493936;241;28605;-76
2023/04/17 09:27:09;;;;;;;14.90;10.47;;;9.90;99.90;;;;;;493982;241;27975;-76
2023/04/17 09:29:11;;;;;;;10.98;9.20;;;9.90;99.90;;;;;;490093;241;36063;-76
2023/04/17 09:31:11;;;;;;;10.60;8.80;;;9.90;99.90;;;;;;493979;241;27589;-76
2023/04/17 09:33:13;;;;;;;10.83;8.73;;;10.00;99.90;;;;;;493973;237;28107;-76
2023/04/17 09:35:14;;;;;;;11.40;9.10;;;10.00;99.90;;;;;;493921;241;28133;-76
2023/04/17 09:37:15;;;;;;;14.00;8.17;;;10.20;99.90;;;;;;493913;241;28113;-76
2023/04/17 09:39:19;;;;;;;9.27;7.80;;;10.20;99.90;;;;;;493973;241;28758;-77
2023/04/17 09:41:18;;;;;;;9.87;7.90;;;10.50;99.90;;;;;;493797;237;28521;-76
2023/04/17 09:43:22;;;;;;;9.40;7.80;;;;;;;;;;493989;241;28581;-76
2023/04/17 09:45:23;;;;;;;9.07;6.70;;;10.50;99.90;;;;;;493746;241;27244;-76
2023/04/17 09:47:23;;;;;;;12.03;8.43;;;10.70;99.90;;;;;;493905;241;28209;-77
2023/04/17 09:49:24;;;;;;;10.77;7.67;;;10.70;99.90;;;;;;493996;241;28281;-76
2023/04/17 09:51:25;;;;;;;7.80;6.77;;;10.70;99.90;;;;;;493998;241;28687;-76
2023/04/17 09:53:26;;;;;;;7.70;6.20;;;11.00;99.90;;;;;;493956;241;28740;-77
2023/04/17 09:55:32;;;;;;;11.07;8.30;;;11.10;99.90;;;;;;493922;241;28726;-76
2023/04/17 09:57:29;;;;;;;9.93;7.60;;;10.80;99.90;;;;;;493702;241;28438;-76
2023/04/17 09:59:30;;;;;;;10.57;7.37;;;10.60;99.90;;;;;;493967;241;28203;-76
2023/04/17 10:01:32;;;;;;;11.50;7.63;;;10.60;99.90;;;;;;493952;241;28189;-76
2023/04/17 10:03:33;;;;;;;11.17;6.60;;;10.70;99.90;;;;;;493929;241;28200;-76
2023/04/17 10:05:34;;;;;;;10.37;7.10;;;10.70;99.90;;;;;;493867;241;28311;-76
2023/04/17 10:07:36;;;;;;;8.57;7.00;;;10.60;99.90;;;;;;493980;241;28255;-76
2023/04/17 10:09:38;;;;;;;9.60;6.90;;;10.60;99.90;;;;;;493970;241;28488;-76
2023/04/17 10:11:38;;;;;;;10.23;7.10;;;10.50;99.90;;;;;;493844;241;28720;-77
2023/04/17 10:13:39;;;;;;;9.13;7.23;;;10.50;99.90;;;;;;493931;241;28616;-76
2023/04/17 10:15:40;;;;;;;8.50;6.77;;;9.80;99.90;;;;;;493893;241;29040;-76
2023/04/17 10:17:41;;;;;;;8.10;6.97;;;10.40;99.90;;;;;;493988;241;28129;-76
2023/04/17 10:19:43;;;;;;;8.40;6.87;;;10.40;99.90;;;;;;493968;241;28041;-76
2023/04/17 10:21:45;;;;;;;9.07;6.90;;;10.50;99.90;;;;;;493972;241;28225;-76
2023/04/17 10:23:45;;;;;;;7.93;7.10;;;10.60;99.90;;;;;;493938;241;28173;-76